Flight Track Log - Related Links

Times and Time Zones

All times are in EDT time to prevent confusion due to time zone crossing. See the SWA1223 flight status page for this flight to view local times or setup timezone preferences in your user account.


Time Position Orientation Groundspeed Altitude Reporting Facility
EDT Latitude Longitude Course Direction KTS MPH feet Rate Location/Type
Mon 01:13:05 PM 33.4333 -112.0333 270° West 148 170 1,700  Level Phoenix TRACON
Mon 01:14:18 PM 33.4333 -112.1167 270° West 225 259 4,000 2,051 Climbing Phoenix TRACON
Mon 01:15:02 PM 33.4408 -112.1531 284° West 225 259 5,700 2,491 Climbing Albuquerque Center
Mon 01:16:04 PM 33.5053 -112.1333 14° North 274 315 8,400 2,419 Climbing Albuquerque Center
Mon 01:17:06 PM 33.5811 -112.0778 31° Northeast 317 365 10,700 2,806 Climbing Albuquerque Center
Mon 01:18:08 PM 33.6869 -111.9994 32° Northeast 371 427 14,200 3,145 Climbing Albuquerque Center
Mon 01:19:10 PM 33.7819 -111.9297 31° Northeast 397 457 17,200 3,097 Climbing Albuquerque Center
Mon 01:20:12 PM 33.8856 -111.8522 32° Northeast 399 459 20,600 2,806 Climbing Albuquerque Center
Mon 01:21:14 PM 33.9847 -111.7781 32° Northeast 417 480 23,000 2,274 Climbing Albuquerque Center
Mon 01:22:16 PM 34.0881 -111.6808 38° Northeast 436 502 25,300 2,032 Climbing Albuquerque Center
Mon 01:23:18 PM 34.1747 -111.5819 43° Northeast 456 525 27,200 1,742 Climbing Albuquerque Center
Mon 01:24:20 PM 34.2694 -111.4750 43° Northeast 464 534 28,900 1,548 Climbing Albuquerque Center
Mon 01:25:22 PM 34.3653 -111.3650 43° Northeast 472 543 30,400 1,694 Climbing Albuquerque Center
Mon 01:26:24 PM 34.4833 -111.2319 43° Northeast 480 552 32,400 1,984 Climbing Albuquerque Center
Mon 01:27:26 PM 34.5786 -111.1200 44° Northeast 481 554 34,500 1,258 Climbing Albuquerque Center
Mon 01:28:28 PM 34.6744 -111.0122 43° Northeast 473 544 35,000 242 Climbing Albuquerque Center
Mon 01:29:30 PM 34.7706 -110.9006 44° Northeast 475 547 35,000  Level Albuquerque Center
Mon 01:30:32 PM 34.8675 -110.7864 44° Northeast 483 556 35,000  Level Albuquerque Center
Mon 01:31:34 PM 34.9753 -110.6611 44° Northeast 487 560 35,000  Level Albuquerque Center
Mon 01:32:36 PM 35.0853 -110.5328 44° Northeast 489 563 35,000  Level Albuquerque Center
Mon 01:33:38 PM 35.1814 -110.4217 43° Northeast 494 568 35,000  Level Albuquerque Center
Mon 01:34:40 PM 35.2936 -110.2914 43° Northeast 497 572 35,000  Level Albuquerque Center
Mon 01:35:43 PM 35.3886 -110.1786 44° Northeast 497 572 35,000  Level Albuquerque Center
Mon 01:36:45 PM 35.4842 -110.0653 44° Northeast 497 572 35,000  Level Albuquerque Center
Mon 01:37:47 PM 35.5953 -109.9322 44° Northeast 499 574 35,000  Level Albuquerque Center
Mon 01:38:49 PM 35.6900 -109.8169 45° Northeast 500 575 35,000  Level Albuquerque Center
Mon 01:39:51 PM 35.7833 -109.6619 53° Northeast 502 578 35,000 242 Level Albuquerque Center
Mon 01:40:53 PM 35.8453 -109.5139 63° Northeast 506 582 35,500 785 Climbing Albuquerque Center
Mon 01:41:38 PM 35.8986 -109.3903 62° Northeast 512 589 36,400 1,065 Climbing Denver Center
Mon 01:41:55 PM 35.9200 -109.3389 63° Northeast 514 592 36,600 456 Climbing Albuquerque Center
Mon 01:42:57 PM 35.9842 -109.1897 62° Northeast 514 592 37,000 224 Climbing Albuquerque Center
Mon 01:43:42 PM 36.0361 -109.0675 62° Northeast 508 585 37,000  Level Denver Center
Mon 01:44:44 PM 36.0961 -108.9222 63° Northeast 506 582 37,000  Level Denver Center
Mon 01:45:01 PM 36.1239 -108.8575 62° Northeast 510 587 37,000  Level Albuquerque Center
Mon 01:45:46 PM 36.1669 -108.7592 62° Northeast 515 593 37,000  Level Denver Center
Mon 01:46:47 PM 36.2397 -108.5836 63° Northeast 513 590 37,000  Level Denver Center
Mon 01:47:49 PM 36.3017 -108.4344 63° Northeast 510 587 37,000  Level Denver Center
Mon 01:48:51 PM 36.3739 -108.2600 63° Northeast 509 586 37,000  Level Denver Center
Mon 01:49:53 PM 36.4367 -108.1097 63° Northeast 511 588 37,000  Level Denver Center
Mon 01:50:54 PM 36.5100 -107.9311 63° Northeast 518 596 37,000  Level Denver Center
Mon 01:51:56 PM 36.5625 -107.8017 63° Northeast 525 604 37,000  Level Denver Center
Mon 01:52:58 PM 36.6361 -107.6222 63° Northeast 520 598 37,000  Level Denver Center
Mon 01:54:00 PM 36.7083 -107.4422 63° Northeast 520 598 37,000  Level Denver Center
Mon 01:55:01 PM 36.7719 -107.2867 63° Northeast 526 605 37,000  Level Denver Center
Mon 01:56:03 PM 36.8442 -107.1058 63° Northeast 524 603 37,000  Level Denver Center
Mon 01:57:05 PM 36.9069 -106.9489 63° Northeast 526 605 37,000  Level Denver Center
Mon 01:58:06 PM 36.9814 -106.7664 63° Northeast 528 608 37,000  Level Denver Center
Mon 01:59:08 PM 37.0419 -106.6072 64° Northeast 526 605 37,000  Level Denver Center
Mon 02:00:10 PM 37.1133 -106.4222 64° Northeast 526 605 37,000  Level Denver Center
Mon 02:01:12 PM 37.1769 -106.2650 63° Northeast 527 606 37,000  Level Denver Center
Mon 02:02:13 PM 37.2358 -106.1128 64° Northeast 510 587 37,000  Level Denver Center
Mon 02:03:15 PM 37.3053 -105.9275 65° Northeast 507 583 37,000  Level Denver Center
Mon 02:04:17 PM 37.3678 -105.7817 62° Northeast 512 589 37,000  Level Denver Center
Mon 02:05:18 PM 37.4650 -105.6217 53° Northeast 514 592 37,000  Level Denver Center
Mon 02:06:20 PM 37.5517 -105.4775 53° Northeast 516 594 37,000  Level Denver Center
Mon 02:07:22 PM 37.6369 -105.3356 53° Northeast 528 608 37,000  Level Denver Center
Mon 02:08:23 PM 37.7350 -105.1728 53° Northeast 521 600 37,000  Level Denver Center
Mon 02:09:25 PM 37.8178 -105.0311 53° Northeast 521 600 37,000  Level Denver Center
Mon 02:10:27 PM 37.9008 -104.8886 54° Northeast 523 602 37,000  Level Denver Center
Mon 02:11:29 PM 37.9989 -104.7214 53° Northeast 527 606 37,000  Level Denver Center
Mon 02:12:30 PM 38.0819 -104.5783 54° Northeast 525 604 37,000  Level Denver Center
Mon 02:13:32 PM 38.1792 -104.4119 53° Northeast 521 600 37,000 726 Level Denver Center
Mon 02:14:34 PM 38.2611 -104.2689 54° Northeast 520 598 38,500 968 Climbing Denver Center
Mon 02:15:36 PM 38.3561 -104.1047 54° Northeast 514 592 39,000 244 Climbing Denver Center
Mon 02:16:37 PM 38.4381 -103.9625 54° Northeast 517 595 39,000  Level Denver Center
Mon 02:17:39 PM 38.5192 -103.8186 54° Northeast 520 598 39,000  Level Denver Center
Mon 02:18:41 PM 38.6144 -103.6511 54° Northeast 519 597 39,000  Level Denver Center
Mon 02:19:43 PM 38.6958 -103.5069 54° Northeast 522 601 39,000  Level Denver Center
Mon 02:20:44 PM 38.7892 -103.3414 54° Northeast 520 598 39,000  Level Denver Center
Mon 02:21:46 PM 38.8739 -103.1906 54° Northeast 519 597 39,000  Level Denver Center
Mon 02:22:48 PM 38.9581 -103.0383 55° Northeast 518 596 39,000  Level Denver Center
Mon 02:23:50 PM 39.0431 -102.8847 54° Northeast 521 600 39,000  Level Denver Center
Mon 02:24:52 PM 39.1325 -102.7250 54° Northeast 530 610 39,000  Level Denver Center
Mon 02:25:53 PM 39.2261 -102.5517 55° Northeast 527 606 39,000  Level Denver Center
Mon 02:26:55 PM 39.3069 -102.4017 55° Northeast 531 611 39,000  Level Denver Center
Mon 02:27:57 PM 39.4008 -102.2339 54° Northeast 530 610 39,000  Level Denver Center
Mon 02:28:58 PM 39.4811 -102.0861 55° Northeast 525 604 39,000  Level Denver Center
Mon 02:30:00 PM 39.5611 -101.9347 56° Northeast 530 610 39,000  Level Denver Center
Mon 02:31:02 PM 39.6544 -101.7614 55° Northeast 527 606 39,000  Level Denver Center
Mon 02:32:04 PM 39.7344 -101.6100 55° Northeast 531 611 39,000  Level Denver Center
Mon 02:33:05 PM 39.8289 -101.4325 55° Northeast 535 616 39,000  Level Denver Center
Mon 02:34:07 PM 39.9097 -101.2786 56° Northeast 538 619 39,000  Level Denver Center
Mon 02:35:09 PM 40.0033 -101.0989 56° Northeast 538 619 39,000  Level Denver Center
Mon 02:36:11 PM 40.0831 -100.9439 56° Northeast 538 619 39,000  Level Denver Center
Mon 02:37:13 PM 40.1767 -100.7650 56° Northeast 536 617 39,000  Level Denver Center
Mon 02:38:14 PM 40.2558 -100.6103 56° Northeast 537 618 39,000  Level Denver Center
Mon 02:39:16 PM 40.3350 -100.4231 61° Northeast 531 611 39,000  Level Denver Center
Mon 02:40:18 PM 40.3686 -100.2456 76° East 526 605 39,000  Level Denver Center
Mon 02:41:20 PM 40.4053 -100.0356 77° East 532 612 39,000  Level Denver Center
Mon 02:42:21 PM 40.4375 -99.8433 78° East 531 611 39,000  Level Denver Center
Mon 02:43:23 PM 40.4694 -99.6556 77° East 529 609 39,000  Level Denver Center
Mon 02:44:25 PM 40.5014 -99.4678 77° East 528 608 39,000  Level Denver Center
Mon 02:45:27 PM 40.5331 -99.2794 77° East 530 610 39,000  Level Denver Center
Mon 02:46:28 PM 40.5639 -99.0919 78° East 528 608 39,000  Level Denver Center
Mon 02:46:55 PM 40.5761 -99.0175 78° East 529 609 39,000  Level Minneapolis Center
Mon 02:47:57 PM 40.6111 -98.7906 78° East 530 610 39,000  Level Minneapolis Center
Mon 02:48:58 PM 40.6414 -98.5994 78° East 535 616 39,000  Level Minneapolis Center
Mon 02:50:00 PM 40.6711 -98.4106 78° East 534 615 39,000  Level Minneapolis Center
Mon 02:51:02 PM 40.7000 -98.2219 79° East 531 611 39,000  Level Minneapolis Center
Mon 02:52:04 PM 40.7289 -98.0325 79° East 531 611 39,000  Level Minneapolis Center
Mon 02:53:05 PM 40.7586 -97.8431 78° East 530 610 39,000  Level Minneapolis Center
Mon 02:54:19 PM 40.7925 -97.6178 79° East 526 605 39,000  Level Minneapolis Center
Mon 02:55:21 PM 40.8258 -97.3914 79° East 524 603 39,000  Level Minneapolis Center
Mon 02:56:23 PM 40.8508 -97.2281 79° East 524 603 39,000  Level Minneapolis Center
Mon 02:57:25 PM 40.8817 -96.9997 80° East 527 606 39,000  Level Minneapolis Center
Mon 02:58:26 PM 40.9108 -96.8108 78° East 527 606 39,000  Level Minneapolis Center
Mon 02:59:28 PM 40.9369 -96.6203 80° East 528 608 39,000  Level Minneapolis Center
Mon 03:00:31 PM 40.9636 -96.4306 79° East 528 608 39,000  Level Minneapolis Center
Mon 03:01:33 PM 40.9900 -96.2403 80° East 530 610 39,000  Level Minneapolis Center
Mon 03:02:34 PM 41.0203 -96.0133 80° East 529 609 39,000  Level Minneapolis Center
Mon 03:03:36 PM 41.0456 -95.8236 80° East 530 610 39,000  Level Minneapolis Center
Mon 03:04:38 PM 41.0708 -95.6344 80° East 529 609 39,000  Level Minneapolis Center
Mon 03:05:39 PM 41.0956 -95.4428 80° East 531 611 39,000  Level Minneapolis Center
Mon 03:06:41 PM 41.1206 -95.2528 80° East 527 606 39,000  Level Minneapolis Center
Mon 03:07:42 PM 41.1447 -95.0633 80° East 523 602 39,000  Level Minneapolis Center
Mon 03:08:44 PM 41.1683 -94.8736 81° East 523 602 39,000  Level Minneapolis Center
Mon 03:09:46 PM 41.1958 -94.6461 81° East 523 602 39,000  Level Minneapolis Center
Mon 03:10:47 PM 41.2183 -94.4544 81° East 525 604 39,000  Level Minneapolis Center
Mon 03:11:49 PM 41.2397 -94.2639 81° East 523 602 39,000  Level Minneapolis Center
Mon 03:12:50 PM 41.2633 -94.0658 81° East 524 603 39,000  Level Minneapolis Center
Mon 03:13:52 PM 41.2864 -93.8739 81° East 526 605 39,000  Level Minneapolis Center
Mon 03:14:53 PM 41.3081 -93.6833 81° East 526 605 39,000  Level Minneapolis Center
Mon 03:15:55 PM 41.3308 -93.4925 81° East 525 604 39,000  Level Minneapolis Center
Mon 03:16:57 PM 41.3533 -93.2992 81° East 528 608 39,000  Level Minneapolis Center
Mon 03:17:58 PM 41.3739 -93.1081 82° East 526 605 39,000  Level Minneapolis Center
Mon 03:19:12 PM 41.3983 -92.8789 82° East 524 603 39,000  Level Minneapolis Center
Mon 03:20:13 PM 41.4228 -92.6503 82° East 522 601 39,000  Level Minneapolis Center
Mon 03:21:15 PM 41.4425 -92.4594 82° East 522 601 39,000  Level Minneapolis Center
Mon 03:21:48 PM 41.4508 -92.3761 82° East 522 601 39,000  Level Chicago Center
Mon 03:22:49 PM 41.4731 -92.1475 83° East 523 602 39,000  Level Chicago Center
Mon 03:23:51 PM 41.4925 -91.9553 82° East 526 605 39,000  Level Chicago Center
Mon 03:24:53 PM 41.5114 -91.7639 82° East 527 606 39,000  Level Chicago Center
Mon 03:25:55 PM 41.5306 -91.5694 82° East 531 611 39,000  Level Chicago Center
Mon 03:26:57 PM 41.5483 -91.3789 83° East 527 606 39,000  Level Chicago Center
Mon 03:27:59 PM 41.5700 -91.1497 83° East 526 605 39,000  Level Chicago Center
Mon 03:29:00 PM 41.5872 -90.9561 83° East 530 610 39,000  Level Chicago Center
Mon 03:30:02 PM 41.6042 -90.7594 83° East 535 616 39,000  Level Chicago Center
Mon 03:31:04 PM 41.6208 -90.5597 84° East 530 610 39,000  Level Chicago Center
Mon 03:32:06 PM 41.6381 -90.3628 83° East 532 612 39,000  Level Chicago Center
Mon 03:33:07 PM 41.6544 -90.1678 84° East 527 606 39,000  Level Chicago Center
Mon 03:34:09 PM 41.6700 -89.9717 84° East 528 608 39,000  Level Chicago Center
Mon 03:35:11 PM 41.6864 -89.7764 84° East 528 608 39,000  Level Chicago Center
Mon 03:36:13 PM 41.7047 -89.5378 84° East 528 608 39,000  Level Chicago Center
Mon 03:37:14 PM 41.7172 -89.3458 85° East 521 600 39,000  Level Chicago Center
Mon 03:38:16 PM 41.7317 -89.1544 84° East 519 597 39,000  Level Chicago Center
Mon 03:39:18 PM 41.7453 -88.9617 85° East 520 598 39,000  Level Chicago Center
Mon 03:40:20 PM 41.7589 -88.7697 85° East 520 598 39,000  Level Chicago Center
Mon 03:41:22 PM 41.7719 -88.5769 85° East 521 600 39,000  Level Chicago Center
Mon 03:42:23 PM 41.7856 -88.3836 85° East 521 600 39,000  Level Chicago Center
Mon 03:43:25 PM 41.7981 -88.1894 85° East 521 600 39,000  Level Chicago Center
Mon 03:44:27 PM 41.8133 -87.9558 85° East 522 601 39,000  Level Chicago Center
Mon 03:45:29 PM 41.8247 -87.7628 85° East 518 596 39,000  Level Chicago Center
Mon 03:46:32 PM 41.8358 -87.5697 86° East 517 595 39,000  Level Chicago Center
Mon 03:47:32 PM 41.8472 -87.3753 85° East 521 600 39,000  Level Chicago Center
Mon 03:48:34 PM 41.8581 -87.1811 86° East 522 601 39,000  Level Chicago Center
Mon 03:49:36 PM 41.8694 -86.9864 85° East 523 602 39,000  Level Chicago Center
Mon 03:50:38 PM 41.8789 -86.7917 86° East 524 603 39,000  Level Chicago Center
Mon 03:51:40 PM 41.8911 -86.5808 85° East 526 605 39,000  Level Chicago Center
Mon 03:52:42 PM 41.9003 -86.3842 86° East 526 605 39,000  Level Chicago Center
Mon 03:53:43 PM 41.9094 -86.1872 86° East 528 608 39,000  Level Chicago Center
Mon 03:54:45 PM 41.9208 -85.9514 86° East 526 605 39,000  Level Chicago Center
Mon 03:55:47 PM 41.9283 -85.7536 87° East 528 608 39,000  Level Chicago Center
Mon 03:56:49 PM 41.9383 -85.5561 86° East 526 605 39,000  Level Chicago Center
Mon 03:57:51 PM 41.9458 -85.3572 87° East 527 606 39,000  Level Chicago Center
Mon 03:58:39 PM 41.9550 -85.1881 86° East 545 627 39,000  Level Cleveland Center
Mon 03:59:39 PM 41.9522 -84.9981 91° East 540 621 39,000  Level Cleveland Center
Mon 04:00:39 PM 41.9511 -84.7994 90° East 533 613 39,000  Level Cleveland Center
Mon 04:01:39 PM 41.9497 -84.6094 90° East 515 593 39,000  Level Cleveland Center
Mon 04:02:39 PM 41.9481 -84.4167 91° East 515 593 39,000  Level Cleveland Center
Mon 04:03:39 PM 41.9433 -84.2433 92° East 520 598 39,000  Level Cleveland Center
Mon 04:04:39 PM 41.9411 -84.0450 91° East 520 598 39,000  Level Cleveland Center
Mon 04:05:39 PM 41.9383 -83.8550 91° East 520 598 39,000  Level Cleveland Center
Mon 04:06:39 PM 41.9333 -83.6592 92° East 520 598 39,000  Level Cleveland Center
Mon 04:07:39 PM 41.9322 -83.4636 90° East 520 598 39,000  Level Cleveland Center
Mon 04:08:39 PM 41.9306 -83.2683 91° East 515 593 39,000  Level Cleveland Center
Mon 04:09:39 PM 41.9311 -83.0561 90° East 515 593 39,000  Level Cleveland Center
Mon 04:10:39 PM 41.9289 -82.8661 91° East 515 593 39,000  Level Cleveland Center
Mon 04:11:39 PM 41.9283 -82.6736 90° East 515 593 39,000  Level Cleveland Center
Mon 04:12:39 PM 41.9233 -82.4808 92° East 520 598 39,000  Level Cleveland Center
Mon 04:13:39 PM 41.9222 -82.2883 90° East 515 593 39,000  Level Cleveland Center
Mon 04:14:39 PM 41.9208 -82.1011 91° East 515 593 39,000  Level Cleveland Center
Mon 04:15:39 PM 41.9189 -81.9114 91° East 510 587 39,000  Level Cleveland Center
Mon 04:16:39 PM 41.9083 -81.7214 94° East 510 587 39,000  Level Cleveland Center
Mon 04:17:39 PM 41.8914 -81.5317 97° East 516 594 39,000  Level Cleveland Center
Mon 04:18:39 PM 41.8742 -81.3417 97° East 516 594 39,000  Level Cleveland Center
Mon 04:19:39 PM 41.8564 -81.1769 98° East 516 594 39,000  Level Cleveland Center
Mon 04:20:39 PM 41.8406 -80.9872 96° East 511 588 39,000  Level Cleveland Center
Mon 04:21:39 PM 41.8222 -80.8033 98° East 505 581 39,000  Level Cleveland Center
Mon 04:22:39 PM 41.8036 -80.6139 97° East 499 574 39,000  Level Cleveland Center
Mon 04:23:39 PM 41.7847 -80.4272 98° East 499 574 39,000  Level Cleveland Center
Mon 04:24:39 PM 41.7656 -80.2239 97° East 504 580 39,000  Level Cleveland Center
Mon 04:25:39 PM 41.7439 -80.0406 99° East 499 574 39,000  Level Cleveland Center
Mon 04:26:39 PM 41.7283 -79.8597 97° East 499 574 39,000  Level Cleveland Center
Mon 04:27:39 PM 41.7064 -79.6764 99° East 499 574 39,000  Level Cleveland Center
Mon 04:28:39 PM 41.6881 -79.4961 98° East 499 574 39,000  Level Cleveland Center
Mon 04:29:39 PM 41.6675 -79.3128 98° East 499 574 39,000  Level Cleveland Center
Mon 04:30:39 PM 41.6486 -79.1297 98° East 505 581 39,000  Level Cleveland Center
Mon 04:31:39 PM 41.6272 -78.9442 99° East 499 574 39,000  Level Cleveland Center
Mon 04:32:39 PM 41.6058 -78.7642 99° East 499 574 39,000  Level Cleveland Center
Mon 04:33:39 PM 41.5861 -78.5842 98° East 499 574 39,000 -500 Level Cleveland Center
Mon 04:34:39 PM 41.5661 -78.4044 98° East 499 574 38,000 -1,800 Descending Cleveland Center
Mon 04:35:49 PM 41.5425 -78.2106 99° East 470 541 35,100 -2,787 Descending New York Center
Mon 04:36:46 PM 41.5200 -78.0333 100° East 470 541 32,100 -2,067 Descending New York Center
Mon 04:37:48 PM 41.4975 -77.8536 99° East 475 547 31,000 -541 Descending New York Center
Mon 04:38:48 PM 41.4739 -77.6931 101° East 480 552 31,000  Level New York Center
Mon 04:39:46 PM 41.4486 -77.5161 101° East 485 558 31,000 -202 Level New York Center
Mon 04:40:47 PM 41.4175 -77.3250 102° East 485 558 30,600 -645 Descending New York Center
Mon 04:41:47 PM 41.3917 -77.1481 101° East 485 558 29,700 -942 Descending New York Center
Mon 04:42:48 PM 41.3658 -76.9686 101° East 485 558 28,700 -1,008 Descending New York Center
Mon 04:43:46 PM 41.3394 -76.7950 101° East 485 558 27,700 -1,475 Descending New York Center
Mon 04:44:46 PM 41.2975 -76.6308 109° East 479 551 25,800 -2,083 Descending New York Center
Mon 04:45:47 PM 41.2533 -76.4725 110° East 462 532 23,500 -2,231 Descending New York Center
Mon 04:46:47 PM 41.2125 -76.3203 110° East 452 520 21,300 -1,918 Descending New York Center
Mon 04:47:49 PM 41.1789 -76.1906 109° East 431 496 19,600 -1,350 Descending New York Center
Mon 04:48:47 PM 41.1417 -76.0472 109° East 412 474 18,600 -923 Descending New York Center
Mon 04:49:46 PM 41.1022 -75.9008 110° East 391 450 17,800 -1,250 Descending New York Center
Mon 04:50:47 PM 41.0644 -75.7658 110° East 391 450 16,100 -1,918 Descending New York Center
Mon 04:51:48 PM 41.0281 -75.6367 110° East 381 438 13,900 -1,574 Descending New York Center
Mon 04:52:49 PM 40.9956 -75.5161 110° East 362 417 12,900 -508 Descending New York Center
Mon 04:53:46 PM 40.9644 -75.4042 110° East 334 384 12,900 -559 Level New York Center
Mon 04:54:47 PM 40.9333 -75.2919 110° East 328 377 11,800 -1,279 Descending New York Center
Mon 04:55:48 PM 40.9022 -75.1828 111° Southeast 323 372 10,300 -1,140 Descending New York Center
Mon 04:56:48 PM 40.8761 -75.0989 112° Southeast 293 337 9,500 -950 Descending New York Center
Mon 04:57:48 PM 40.8653 -74.9967 98° East 278 320 8,400 -1,091 Descending New York Center
Mon 04:58:49 PM 40.8608 -74.8839 93° East 280 322 7,300 -1,017 Descending New York Center
Mon 04:59:46 PM 40.8806 -74.7917 74° East 280 322 6,400 -661 Descending New York Center
Mon 05:00:47 PM 40.9011 -74.6803 76° East 286 329 6,000 -197 Descending New York Center
Mon 05:01:48 PM 40.9211 -74.5800 75° East 291 335 6,000 -347 Level New York Center
Mon 05:02:48 PM 40.9553 -74.4831 65° Northeast 286 329 5,300 -496 Descending New York Center
Mon 05:03:49 PM 40.9978 -74.3947 57° Northeast 286 329 5,000 -212 Descending New York Center
Mon 05:04:13 PM 41.0000 -74.3500 86° East 259 298 5,000 71 Level New York TRACON
Mon 05:05:13 PM 41.0000 -74.2667 90° East 243 280 5,100 -250 Climbing New York TRACON
Mon 05:06:13 PM 41.0000 -74.1833 90° East 205 236 4,500 -550 Descending New York TRACON
Mon 05:07:13 PM 40.9833 -74.1167 108° East 192 221 4,000 -250 Descending New York TRACON
Mon 05:08:13 PM 40.9500 -74.0667 131° Southeast 184 212 4,000 -450 Level New York TRACON
Mon 05:09:13 PM 40.9167 -74.0500 159° South 172 198 3,100 -500 Descending New York TRACON
Mon 05:10:13 PM 40.8667 -74.0500 180° South 169 194 3,000 -150 Descending New York TRACON
Mon 05:11:13 PM 40.8167 -74.0833 207° Southwest 169 194 2,800 -619 Descending New York TRACON
Mon 05:12:19 PM 40.7667 -74.1167 207° Southwest 172 198 1,700 -905 Descending New York TRACON
Mon 05:13:19 PM 40.7333 -74.1333 201° Southwest 140 161 900 -800 Descending New York TRACON

Login

Don't have an account? Register now (free) for customized features, flight alerts, and more!